Time;durP1;ratioP1;P1;durP2;ratioP2;P2;SDS_P1;SDS_P2;PMS_P1;PMS_P2;Temp;Humidity;BMP_temperature;BMP_pressure;BME280_temperature;BME280_humidity;BME280_pressure;Samples;Min_cycle;Max_cycle;Signal;HPM_P1;HPM_P2
2021/03/20 00:01:42;;;;;;;7.00;4.00;;;;;;;2.47;40.99;102637.06;5101703;28;20168;-69
2021/03/20 00:04:08;;;;;;;5.97;4.10;;;;;;;2.81;40.64;102638.63;5102594;28;20491;-69
2021/03/20 00:06:36;;;;;;;3.80;3.50;;;;;;;2.46;41.37;102631.81;5102015;28;20425;-68
2021/03/20 00:09:06;;;;;;;4.60;3.80;;;;;;;2.55;42.06;102636.75;5104578;28;20879;-68
2021/03/20 00:11:31;;;;;;;4.40;3.83;;;;;;;2.63;41.72;102638.22;5106635;28;20410;-68
2021/03/20 00:13:58;;;;;;;6.60;4.73;;;;;;;2.52;41.32;102634.84;5101866;28;20706;-69
2021/03/20 00:16:23;;;;;;;6.60;4.93;;;;;;;2.65;41.19;102639.19;5101739;28;20176;-68
2021/03/20 00:18:48;;;;;;;5.90;5.03;;;;;;;2.76;41.04;102642.56;5102072;28;20527;-68
2021/03/20 00:21:14;;;;;;;6.37;5.47;;;;;;;2.84;41.21;102649.16;5080600;28;20196;-68
2021/03/20 00:23:39;;;;;;;6.47;5.40;;;;;;;3.04;42.87;102653.16;5062354;28;20217;-68
2021/03/20 00:26:05;;;;;;;6.07;4.60;;;;;;;2.70;41.85;102645.59;5060770;28;20616;-69
2021/03/20 00:28:31;;;;;;;8.73;4.43;;;;;;;2.80;41.65;102641.97;5060573;28;20174;-70
2021/03/20 00:30:59;;;;;;;5.90;4.30;;;;;;;2.73;42.32;102635.50;5062665;28;20420;-68
2021/03/20 00:33:25;;;;;;;4.80;4.40;;;;;;;2.66;42.08;102638.41;5060248;28;20205;-68
2021/03/20 00:35:51;;;;;;;6.83;4.13;;;;;;;2.77;42.22;102641.78;5061291;28;20471;-68
2021/03/20 00:38:17;;;;;;;4.67;4.27;;;;;;;2.77;43.18;102644.34;5065120;28;20196;-69
2021/03/20 00:40:43;;;;;;;8.40;4.93;;;;;;;2.64;43.18;102635.75;5080077;28;20410;-68
2021/03/20 00:43:09;;;;;;;5.10;4.07;;;;;;;2.84;42.45;102636.25;5080262;28;20415;-69
2021/03/20 00:45:34;;;;;;;6.00;4.27;;;;;;;2.40;43.73;102641.69;5081166;28;20399;-68
2021/03/20 00:48:16;;;;;;;12.13;7.27;;;;;;;2.92;42.67;102642.84;5080793;28;20839;-68
2021/03/20 00:50:42;;;;;;;5.57;4.73;;;;;;;2.56;43.76;102642.00;5070088;28;20461;-68
2021/03/20 00:53:07;;;;;;;5.77;4.97;;;;;;;2.76;43.12;102648.63;5060571;28;20681;-68
2021/03/20 00:55:32;;;;;;;9.93;7.60;;;;;;;2.74;43.31;102654.44;5060708;28;20419;-68
2021/03/20 00:57:58;;;;;;;5.90;4.70;;;;;;;2.45;44.61;102660.91;5061270;28;20229;-69
2021/03/20 01:00:26;;;;;;;5.03;4.50;;;;;;;2.80;44.24;102654.88;5060579;28;20174;-69
2021/03/20 01:02:51;;;;;;;7.47;5.87;;;;;;;2.58;44.92;102658.44;5060417;28;20251;-69
2021/03/20 01:05:18;;;;;;;7.67;5.10;;;;;;;2.02;45.54;102661.19;5059700;28;20821;-69
2021/03/20 01:07:43;;;;;;;5.00;4.13;;;;;;;2.17;45.81;102661.44;5060028;28;20205;-69
2021/03/20 01:10:16;;;;;;;6.07;4.50;;;;;;;2.10;45.99;102660.09;5060416;28;20478;-70
2021/03/20 01:12:41;;;;;;;7.00;4.20;;;;;;;2.18;46.19;102665.81;5060834;28;20534;-68
2021/03/20 01:15:08;;;;;;;5.50;4.40;;;;;;;2.14;46.67;102663.81;5060361;28;20416;-69
2021/03/20 01:17:34;;;;;;;8.93;4.57;;;;;;;2.14;45.92;102656.09;5060161;28;20571;-69
2021/03/20 01:19:59;;;;;;;4.97;4.57;;;;;;;1.84;47.04;102655.53;5060710;28;20404;-70
2021/03/20 01:22:24;;;;;;;6.10;4.33;;;;;;;1.56;48.67;102652.56;5062312;28;20169;-69
2021/03/20 01:24:50;;;;;;;5.63;4.60;;;;;;;2.04;47.72;102645.88;5063767;28;20260;-68
2021/03/20 01:27:15;;;;;;;9.73;5.20;;;;;;;2.02;47.53;102641.50;5061441;28;20494;-69
2021/03/20 01:29:40;;;;;;;5.37;4.50;;;;;;;1.93;48.44;102651.09;5060337;28;20482;-68
2021/03/20 01:32:06;;;;;;;6.80;4.60;;;;;;;1.59;48.30;102640.81;5060031;28;20177;-68
2021/03/20 01:34:31;;;;;;;5.97;4.93;;;;;;;1.96;47.69;102646.19;5059914;28;20188;-68
2021/03/20 01:36:57;;;;;;;6.67;4.10;;;;;;;2.19;47.41;102632.47;5059825;28;20196;-68
2021/03/20 01:39:22;;;;;;;4.67;4.27;;;;;;;2.10;47.41;102628.34;5060170;28;20171;-69
2021/03/20 01:41:47;;;;;;;5.90;4.00;;;;;;;2.23;47.39;102623.28;5059642;28;20260;-69
2021/03/20 01:44:16;;;;;;;5.00;4.23;;;;;;;2.07;47.60;102636.72;5059784;28;20435;-68
2021/03/20 01:46:52;;;;;;;4.97;4.10;;;;;;;2.11;47.78;102632.66;5060178;28;20199;-68
2021/03/20 01:49:41;;;;;;;4.47;3.60;;;;;;;2.10;49.54;102631.78;5059201;28;20415;-69
2021/03/20 01:52:12;;;;;;;4.63;3.93;;;;;;;2.12;50.62;102637.94;5059621;28;20420;-68
2021/03/20 01:54:51;;;;;;;4.43;3.50;;;;;;;2.08;47.49;102641.06;5059545;28;20465;-69
2021/03/20 01:57:20;;;;;;;4.07;3.67;;;;;;;2.42;46.26;102625.56;5058781;28;20760;-69
2021/03/20 01:59:46;;;;;;;5.00;3.50;;;;;;;2.22;47.44;102628.31;5058588;28;20408;-68
2021/03/20 02:02:12;;;;;;;4.53;3.50;;;;;;;1.87;48.17;102626.59;5059529;28;20443;-68
2021/03/20 02:04:37;;;;;;;4.40;3.80;;;;;;;2.30;46.80;102619.50;5059646;28;20162;-68
2021/03/20 02:07:02;;;;;;;6.47;3.93;;;;;;;2.42;46.68;102611.78;5066176;28;20257;-68
2021/03/20 02:09:28;;;;;;;4.20;3.60;;;;;;;2.08;46.94;102615.31;5060897;28;20502;-68
2021/03/20 02:12:04;;;;;;;4.53;3.60;;;;;;;2.18;48.11;102601.50;5058748;28;20169;-68
2021/03/20 02:14:54;;;;;;;7.00;3.43;;;;;;;2.19;46.63;102613.56;5059124;28;20248;-69
2021/03/20 02:17:47;;;;;;;5.70;3.83;;;;;;;2.45;47.66;102606.84;5058798;28;20899;-69
2021/03/20 02:20:29;;;;;;;6.90;4.10;;;;;;;2.18;47.36;102612.66;5058659;28;20469;-69
2021/03/20 02:23:07;;;;;;;6.73;3.83;;;;;;;2.18;47.68;102617.81;5057990;28;20424;-68
2021/03/20 02:26:01;;;;;;;4.93;3.53;;;;;;;2.50;46.82;102608.09;5058733;28;20459;-68
2021/03/20 02:29:11;;;;;;;7.80;4.00;;;;;;;2.04;47.28;102608.16;5058910;28;20424;-68
2021/03/20 02:31:56;;;;;;;7.10;3.60;;;;;;;1.89;47.79;102609.59;5058414;28;20460;-68
2021/03/20 02:34:29;;;;;;;4.40;3.50;;;;;;;2.08;48.02;102610.19;5058367;28;20900;-68
2021/03/20 02:37:12;;;;;;;4.57;3.80;;;;;;;1.99;47.79;102615.56;5058026;28;20428;-69
2021/03/20 02:40:12;;;;;;;6.17;3.97;;;;;;;1.99;48.34;102622.38;5058296;28;20436;-69
2021/03/20 02:43:02;;;;;;;4.13;3.50;;;;;;;2.00;47.93;102609.63;5041024;28;20908;-68
2021/03/20 02:45:40;;;;;;;4.13;3.47;;;;;;;1.75;48.67;102606.00;5058768;28;20821;-69
2021/03/20 02:48:11;;;;;;;6.57;3.60;;;;;;;1.83;48.91;102594.63;5058221;28;20435;-68
2021/03/20 02:50:49;;;;;;;13.17;7.57;;;;;;;1.81;49.20;102593.59;5060248;28;20450;-68
2021/03/20 02:53:22;;;;;;;5.63;4.80;;;;;;;1.85;48.96;102590.47;5063097;28;20431;-69
2021/03/20 02:55:49;;;;;;;5.53;4.10;;;;;;;1.59;49.38;102597.09;5057600;28;20566;-69
2021/03/20 02:58:19;;;;;;;4.93;4.10;;;;;;;2.24;47.85;102583.91;5057350;28;20460;-70
2021/03/20 03:00:53;;;;;;;4.90;3.97;;;;;;;2.29;51.93;102589.41;5073290;28;20459;-68
2021/03/20 03:03:21;;;;;;;4.63;3.40;;;;;;;2.29;47.91;102579.13;5056251;28;20439;-69
2021/03/20 03:06:04;;;;;;;4.00;3.37;;;;;;;2.26;47.60;102577.22;5057446;28;20853;-69
2021/03/20 03:09:07;;;;;;;5.17;3.50;;;;;;;1.90;48.46;102583.13;5057418;28;20424;-69
2021/03/20 03:11:40;;;;;;;4.10;3.40;;;;;;;1.92;48.32;102572.16;5058233;28;20736;-69
2021/03/20 03:14:12;;;;;;;6.20;3.80;;;;;;;2.17;47.72;102561.97;5058092;28;20728;-70
2021/03/20 03:16:46;;;;;;;3.60;3.20;;;;;;;2.29;48.71;102572.28;5057969;28;20810;-69
2021/03/20 03:19:16;;;;;;;6.37;3.70;;;;;;;1.97;48.63;102570.78;5062516;28;20507;-68
2021/03/20 03:21:45;;;;;;;6.90;3.87;;;;;;;1.77;48.13;102573.56;5078171;28;20426;-68
2021/03/20 03:24:13;;;;;;;3.70;3.30;;;;;;;1.80;48.62;102564.41;5077978;28;20807;-70
2021/03/20 03:26:41;;;;;;;5.20;3.17;;;;;;;1.71;48.93;102563.72;5077603;28;20466;-67
2021/03/20 03:29:12;;;;;;;3.87;3.43;;;;;;;1.71;49.66;102561.16;5079475;28;20422;-67
2021/03/20 03:31:53;;;;;;;4.30;3.77;;;;;;;1.85;48.84;102562.19;5081481;28;20897;-69
2021/03/20 03:34:28;;;;;;;6.47;3.90;;;;;;;1.99;48.29;102569.25;5061708;28;20465;-68
2021/03/20 03:36:59;;;;;;;5.30;3.90;;;;;;;1.91;49.07;102562.66;5052701;28;20443;-68
2021/03/20 03:39:55;;;;;;;4.03;3.63;;;;;;;1.86;49.61;102571.69;5062106;28;20424;-69
2021/03/20 03:42:21;;;;;;;4.37;3.50;;;;;;;2.17;48.06;102561.09;5060912;28;20535;-70
2021/03/20 03:44:49;;;;;;;5.33;4.03;;;;;;;1.45;50.02;102565.22;5077930;28;20448;-68
2021/03/20 03:47:20;;;;;;;4.10;3.40;;;;;;;1.70;49.97;102568.75;5082345;28;20423;-67
2021/03/20 03:49:52;;;;;;;4.00;3.60;;;;;;;1.66;49.25;102575.31;5074416;28;20450;-69
2021/03/20 03:52:24;;;;;;;4.43;3.43;;;;;;;2.15;48.52;102575.50;5062847;28;20412;-69
2021/03/20 03:54:49;;;;;;;4.73;3.20;;;;;;;1.62;49.50;102571.63;5072424;28;20516;-68
2021/03/20 03:57:42;;;;;;;4.07;3.37;;;;;;;1.95;48.11;102580.09;5081059;28;20411;-69
2021/03/20 04:00:10;;;;;;;3.60;3.30;;;;;;;1.94;48.07;102580.88;5081858;28;20183;-69
2021/03/20 04:02:50;;;;;;;4.77;3.30;;;;;;;1.42;49.56;102576.94;5085067;28;20419;-69
2021/03/20 04:05:31;;;;;;;4.73;3.57;;;;;;;1.77;49.20;102571.91;5073389;28;20450;-67
2021/03/20 04:08:08;;;;;;;5.27;3.50;;;;;;;1.80;49.02;102571.22;5086016;28;20421;-68
2021/03/20 04:10:50;;;;;;;8.73;4.33;;;;;;;1.85;48.17;102564.75;5101010;28;20437;-68
2021/03/20 04:13:26;;;;;;;8.97;3.87;;;;;;;1.40;49.28;102563.97;5101005;28;20712;-68
2021/03/20 04:16:01;;;;;;;6.67;4.30;;;;;;;2.00;47.88;102555.63;5101172;28;20418;-68
2021/03/20 04:18:29;;;;;;;5.40;4.50;;;;;;;2.04;48.15;102551.56;5100890;28;20464;-68
2021/03/20 04:21:31;;;;;;;5.27;4.10;;;;;;;1.83;49.30;102556.91;5100753;28;20723;-67
2021/03/20 04:24:05;;;;;;;5.00;3.90;;;;;;;1.91;48.57;102551.44;5084088;28;20415;-67
2021/03/20 04:26:42;;;;;;;4.27;3.87;;;;;;;1.63;49.10;102547.72;5080423;28;20547;-67
2021/03/20 04:29:22;;;;;;;4.80;4.30;;;;;;;1.46;50.17;102551.59;5081113;28;20808;-68
2021/03/20 04:32:09;;;;;;;4.87;3.73;;;;;;;2.10;51.59;102548.59;5063422;28;20533;-68
2021/03/20 04:35:03;;;;;;;4.30;3.87;;;;;;;1.56;51.24;102549.72;5080952;28;20504;-69
2021/03/20 04:37:32;;;;;;;6.20;3.80;;;;;;;1.77;49.47;102551.34;5072406;28;20459;-68
2021/03/20 04:39:58;;;;;;;4.77;3.77;;;;;;;1.60;49.58;102562.91;5063010;28;20564;-68
2021/03/20 04:42:26;;;;;;;6.33;3.77;;;;;;;2.12;48.87;102560.75;5080939;28;20505;-69
2021/03/20 04:44:53;;;;;;;6.27;3.80;;;;;;;1.63;52.51;102563.13;5081115;28;20206;-69
2021/03/20 04:47:22;;;;;;;9.80;7.00;;;;;;;1.90;50.15;102567.69;5080158;28;20423;-69
2021/03/20 04:49:56;;;;;;;7.40;5.73;;;;;;;2.28;49.03;102567.91;5079899;28;20419;-69
2021/03/20 04:52:36;;;;;;;4.30;3.90;;;;;;;2.09;49.17;102569.94;5079659;28;20423;-67
2021/03/20 04:55:05;;;;;;;5.53;4.50;;;;;;;1.66;50.54;102573.69;5079764;28;20418;-69
2021/03/20 04:57:54;;;;;;;7.47;5.20;;;;;;;1.85;51.87;102575.03;5080405;28;20837;-68
2021/03/20 05:00:33;;;;;;;4.40;4.00;;;;;;;2.10;50.08;102564.00;5065554;28;20451;-69
2021/03/20 05:03:06;;;;;;;4.40;4.00;;;;;;;2.22;49.25;102562.34;5059790;28;20439;-68
2021/03/20 05:05:36;;;;;;;3.87;3.50;;;;;;;1.64;50.89;102554.66;5059958;28;20412;-69
2021/03/20 05:08:05;;;;;;;4.07;3.67;;;;;;;2.19;48.85;102552.72;5059561;28;20420;-70
2021/03/20 05:10:50;;;;;;;4.90;4.20;;;;;;;1.72;49.78;102549.19;5059697;28;20451;-68
2021/03/20 05:13:26;;;;;;;4.77;4.03;;;;;;;1.81;50.17;102547.28;5058722;28;20569;-70
2021/03/20 05:15:57;;;;;;;3.67;3.33;;;;;;;1.23;51.72;102554.06;5060764;28;20471;-69
2021/03/20 05:18:22;;;;;;;5.33;4.10;;;;;;;1.41;52.34;102539.16;5068917;28;20482;-69
2021/03/20 05:20:47;;;;;;;4.63;3.90;;;;;;;1.37;51.47;102532.00;5080050;28;20426;-69
2021/03/20 05:23:12;;;;;;;4.10;3.70;;;;;;;1.53;51.32;102534.97;5082100;28;20169;-67
2021/03/20 05:25:38;;;;;;;4.30;3.50;;;;;;;1.44;51.29;102530.00;5063304;28;20233;-68
2021/03/20 05:28:03;;;;;;;5.73;4.27;;;;;;;1.54;51.35;102536.72;5060514;28;20193;-68
2021/03/20 05:30:28;;;;;;;6.50;3.60;;;;;;;1.53;51.42;102534.97;5060180;28;20231;-67
2021/03/20 05:32:54;;;;;;;9.23;3.97;;;;;;;1.60;54.01;102539.78;5059634;28;20191;-67
2021/03/20 05:35:23;;;;;;;5.97;3.70;;;;;;;1.84;50.61;102542.38;5059867;28;20173;-68
2021/03/20 05:37:49;;;;;;;5.00;4.10;;;;;;;1.72;50.34;102544.94;5059779;28;20468;-68
2021/03/20 05:40:17;;;;;;;4.40;4.00;;;;;;;2.07;50.04;102543.19;5059769;28;20809;-68
2021/03/20 05:43:01;;;;;;;4.10;3.70;;;;;;;1.66;50.75;102550.53;5058744;28;20189;-69
2021/03/20 05:45:29;;;;;;;4.40;4.00;;;;;;;1.71;50.73;102555.13;5059793;28;20514;-68
2021/03/20 05:48:02;;;;;;;6.23;4.00;;;;;;;1.68;52.89;102558.34;5059938;28;20452;-68
2021/03/20 05:50:40;;;;;;;4.10;3.70;;;;;;;1.82;52.02;102559.38;5058613;28;20454;-68
2021/03/20 05:53:41;;;;;;;5.50;3.80;;;;;;;1.80;51.41;102558.34;5058643;28;20473;-68
2021/03/20 05:56:18;;;;;;;4.70;3.97;;;;;;;1.85;50.98;102557.03;5059305;28;20474;-68
2021/03/20 05:59:14;;;;;;;4.27;3.87;;;;;;;1.91;50.71;102561.72;5063569;28;20466;-70
2021/03/20 06:01:52;;;;;;;7.00;4.17;;;;;;;1.73;51.21;102566.41;5062423;28;20688;-68
2021/03/20 06:04:40;;;;;;;8.07;4.13;;;;;;;2.22;50.11;102569.13;5058637;28;20439;-68
2021/03/20 06:07:17;;;;;;;6.73;4.13;;;;;;;1.90;50.87;102558.28;5075540;28;20450;-68
2021/03/20 06:09:45;;;;;;;4.20;3.47;;;;;;;2.20;50.15;102561.31;5075568;28;20465;-68
2021/03/20 06:12:24;;;;;;;4.23;3.83;;;;;;;2.31;50.29;102563.00;5078736;28;20431;-67
2021/03/20 06:15:11;;;;;;;4.67;4.27;;;;;;;2.32;50.07;102564.78;5070613;28;20468;-68
2021/03/20 06:17:48;;;;;;;4.70;3.80;;;;;;;2.61;51.21;102558.28;5058280;28;20723;-70
2021/03/20 06:20:20;;;;;;;5.33;4.60;;;;;;;2.63;49.77;102551.53;5059070;28;20423;-70
2021/03/20 06:23:24;;;;;;;4.20;3.80;;;;;;;2.53;49.71;102547.41;5058184;28;20412;-68
2021/03/20 06:25:50;;;;;;;4.80;4.10;;;;;;;2.83;50.01;102549.50;5061011;28;20544;-69
2021/03/20 06:28:17;;;;;;;4.50;3.83;;;;;;;2.57;49.68;102557.94;5079752;28;20416;-69
2021/03/20 06:30:50;;;;;;;5.03;4.40;;;;;;;2.21;52.11;102554.50;5083258;28;20229;-68
2021/03/20 06:33:32;;;;;;;4.30;3.90;;;;;;;2.74;49.39;102559.16;5077623;28;20441;-69
2021/03/20 06:36:07;;;;;;;9.67;4.23;;;;;;;2.75;48.90;102560.91;5078862;28;20423;-70
2021/03/20 06:38:46;;;;;;;8.13;4.50;;;;;;;2.38;49.76;102566.91;5077838;28;20753;-69
2021/03/20 06:41:24;;;;;;;5.00;4.50;;;;;;;2.80;48.83;102565.63;5060114;28;20698;-70
2021/03/20 06:43:56;;;;;;;6.30;3.80;;;;;;;2.52;49.60;102562.75;5058995;28;20451;-69
2021/03/20 06:46:28;;;;;;;5.63;4.10;;;;;;;2.26;52.60;102566.91;5078460;28;20417;-69
2021/03/20 06:48:55;;;;;;;4.13;3.73;;;;;;;2.58;49.62;102567.44;5065793;28;20442;-69
2021/03/20 06:51:20;;;;;;;3.50;3.20;;;;;;;2.28;49.92;102560.19;5063167;28;20420;-69
2021/03/20 06:53:58;;;;;;;5.27;4.17;;;;;;;2.36;49.74;102555.63;5059121;28;20831;-69
2021/03/20 06:56:25;;;;;;;3.83;3.33;;;;;;;2.11;51.12;102550.34;5077844;28;20527;-69
2021/03/20 06:58:50;;;;;;;5.00;3.40;;;;;;;2.47;50.34;102548.66;5077726;28;20722;-69
2021/03/20 07:01:20;;;;;;;5.97;4.33;;;;;;;2.56;48.72;102549.31;5078206;28;20427;-71
2021/03/20 07:04:37;;;;;;;4.10;3.70;;;;;;;2.70;48.77;102537.41;5068554;28;20264;-69
2021/03/20 07:07:26;;;;;;;8.03;4.10;;;;;;;2.69;48.30;102540.78;5075831;28;20415;-72
2021/03/20 07:09:53;;;;;;;4.63;3.30;;;;;;;2.80;48.98;102549.25;5078122;28;20426;-67
2021/03/20 07:12:21;;;;;;;4.70;3.07;;;;;;;2.95;48.27;102545.19;5077409;28;20898;-72
2021/03/20 07:14:55;;;;;;;3.70;3.40;;;;;;;2.40;50.40;102543.88;5077553;28;20411;-69
2021/03/20 07:17:24;;;;;;;4.23;3.57;;;;;;;2.69;49.02;102544.25;5077485;28;20441;-71
2021/03/20 07:20:00;;;;;;;4.97;3.20;;;;;;;2.51;50.28;102541.25;5077183;28;20411;-71
2021/03/20 07:22:33;;;;;;;5.03;3.67;;;;;;;2.64;48.79;102540.47;5058219;28;20485;-70
2021/03/20 07:25:00;;;;;;;6.20;4.53;;;;;;;2.85;49.38;102532.44;5058866;28;20671;-69
2021/03/20 07:27:32;;;;;;;4.60;3.60;;;;;;;2.84;50.99;102536.72;5091244;28;20447;-69
2021/03/20 07:30:08;;;;;;;4.23;3.43;;;;;;;2.95;48.52;102528.84;5090978;28;20412;-70
2021/03/20 07:32:39;;;;;;;5.60;4.07;;;;;;;2.80;48.51;102528.66;5057893;28;20412;-72
2021/03/20 07:35:19;;;;;;;3.87;3.53;;;;;;;2.80;49.82;102519.28;5057996;28;20443;-72
2021/03/20 07:37:46;;;;;;;4.57;3.53;;;;;;;2.87;51.55;102515.44;5057170;28;20478;-70
2021/03/20 07:40:26;;;;;;;3.90;3.50;;;;;;;3.23;48.22;102512.72;5072983;28;20474;-69
2021/03/20 07:43:15;;;;;;;6.03;3.43;;;;;;;3.45;47.52;102515.03;5077570;28;20468;-69
2021/03/20 07:45:42;;;;;;;4.90;4.00;;;;;;;3.39;47.93;102506.91;5062908;28;20455;-69
2021/03/20 07:48:23;;;;;;;5.23;3.63;;;;;;;3.86;46.04;102504.91;5058245;28;20446;-68
2021/03/20 07:51:00;;;;;;;4.00;3.60;;;;;;;4.01;44.74;102506.72;5057946;28;20481;-70
2021/03/20 07:53:27;;;;;;;5.50;3.40;;;;;;;3.68;44.98;102496.84;5057918;28;20415;-69
2021/03/20 07:56:25;;;;;;;4.10;3.70;;;;;;;3.95;45.60;102502.03;5060197;28;20482;-69
2021/03/20 07:59:00;;;;;;;3.47;3.17;;;;;;;3.81;45.63;102502.81;5058011;28;20459;-69
2021/03/20 08:01:30;;;;;;;3.67;3.33;;;;;;;3.83;45.97;102501.22;5057613;28;20827;-71
2021/03/20 08:04:02;;;;;;;4.10;3.57;;;;;;;3.92;44.85;102506.97;5057595;28;20416;-69
2021/03/20 08:06:29;;;;;;;5.00;3.77;;;;;;;4.60;45.24;102501.00;5058309;28;20447;-70
2021/03/20 08:09:15;;;;;;;4.00;3.60;;;;;;;4.22;44.86;102502.94;5056753;28;20424;-69
2021/03/20 08:11:41;;;;;;;5.20;3.37;;;;;;;4.32;43.82;102501.81;5056721;28;20415;-71
2021/03/20 08:14:21;;;;;;;3.97;3.57;;;;;;;4.24;44.21;102500.44;5057208;28;20487;-69
2021/03/20 08:16:47;;;;;;;4.40;3.50;;;;;;;4.50;43.83;102499.50;5064205;28;20275;-69
2021/03/20 08:19:16;;;;;;;4.97;3.47;;;;;;;4.51;44.22;102500.41;5059844;28;20563;-72
2021/03/20 08:22:07;;;;;;;9.20;3.30;;;;;;;4.35;43.65;102507.16;5059699;28;20212;-72
2021/03/20 08:24:40;;;;;;;3.47;3.17;;;;;;;4.28;42.73;102499.84;5060801;28;20809;-72
2021/03/20 08:27:39;;;;;;;4.20;3.60;;;;;;;4.80;43.36;102499.63;5060365;28;20525;-72
2021/03/20 08:30:38;;;;;;;3.87;3.20;;;;;;;4.10;42.96;102501.22;5060410;28;20404;-75
2021/03/20 08:33:40;;;;;;;4.00;3.60;;;;;;;3.75;43.34;102504.97;5060186;28;20897;-70
2021/03/20 08:36:08;;;;;;;5.37;3.40;;;;;;;3.76;43.70;102494.78;5078236;28;20395;-69
2021/03/20 08:38:36;;;;;;;4.47;3.90;;;;;;;4.78;47.98;102483.13;5080588;28;20459;-74
2021/03/20 08:41:08;;;;;;;5.67;3.60;;;;;;;4.74;44.18;102483.75;5080723;28;20741;-73
2021/03/20 08:44:09;;;;;;;4.03;3.20;;;;;;;5.53;40.74;102483.25;5079949;28;20419;-73
2021/03/20 08:46:44;;;;;;;5.23;3.70;;;;;;;5.51;38.60;102483.19;5080275;28;20415;-73
2021/03/20 08:49:29;;;;;;;3.97;3.57;;;;;;;5.26;38.33;102496.34;5080024;28;20682;-74
2021/03/20 08:52:06;;;;;;;4.30;3.43;;;;;;;4.97;39.25;102495.50;5080434;28;20874;-71
2021/03/20 08:55:10;;;;;;;3.70;3.30;;;;;;;4.71;40.19;102493.91;5080773;28;20438;-71
2021/03/20 08:57:38;;;;;;;7.10;3.23;;;;;;;4.59;39.86;102487.94;5079249;28;20446;-76
2021/03/20 09:00:27;;;;;;;6.20;3.47;;;;;;;4.70;40.64;102492.13;5079179;28;20425;-75
2021/03/20 09:02:54;;;;;;;4.70;3.13;;;;;;;4.30;41.60;102493.09;5072053;28;20420;-71
2021/03/20 09:05:29;;;;;;;4.90;3.67;;;;;;;4.63;42.15;102482.22;5079772;28;20695;-71
2021/03/20 09:07:58;;;;;;;4.77;3.90;;;;;;;5.06;40.75;102492.59;5079523;28;20747;-70
2021/03/20 09:10:28;;;;;;;3.50;3.20;;;;;;;4.87;40.69;102487.97;5080345;28;20450;-70
2021/03/20 09:13:11;;;;;;;4.83;3.67;;;;;;;5.16;39.60;102489.75;5082593;28;20538;-70
2021/03/20 09:15:37;;;;;;;4.83;3.30;;;;;;;4.41;40.93;102485.13;5079462;28;20670;-70
2021/03/20 09:18:04;;;;;;;5.97;2.97;;;;;;;4.84;41.54;102487.78;5079359;28;20513;-70
2021/03/20 09:20:48;;;;;;;4.13;3.50;;;;;;;4.42;40.08;102486.91;5079804;28;20438;-71
2021/03/20 09:23:31;;;;;;;4.00;3.50;;;;;;;4.61;40.15;102489.84;5079479;28;20488;-69
2021/03/20 09:26:00;;;;;;;3.30;2.97;;;;;;;4.49;40.61;102486.50;5079272;28;20497;-72
2021/03/20 09:28:29;;;;;;;3.90;3.33;;;;;;;4.94;39.46;102477.22;5080057;28;20411;-70
2021/03/20 09:30:58;;;;;;;3.57;3.27;;;;;;;5.13;38.62;102480.88;5079712;28;20490;-70
2021/03/20 09:33:32;;;;;;;4.07;3.40;;;;;;;4.95;39.26;102480.69;5078957;28;20435;-70
2021/03/20 09:36:08;;;;;;;4.20;3.50;;;;;;;4.46;40.07;102476.84;5079156;28;20411;-69
2021/03/20 09:38:33;;;;;;;3.43;3.00;;;;;;;4.85;39.21;102476.66;5078951;28;20466;-70
2021/03/20 09:40:59;;;;;;;3.67;3.20;;;;;;;4.89;40.49;102473.47;5080772;28;20433;-70
2021/03/20 09:43:33;;;;;;;3.67;3.37;;;;;;;5.14;41.52;102474.94;5081383;28;20185;-70
2021/03/20 09:46:37;;;;;;;4.00;3.20;;;;;;;5.58;38.60;102466.31;5081367;28;20447;-69
2021/03/20 09:49:23;;;;;;;3.50;3.20;;;;;;;5.63;38.12;102466.56;5079574;28;20419;-69
2021/03/20 09:51:48;;;;;;;3.97;3.57;;;;;;;5.25;39.68;102463.56;5064062;28;20423;-70
2021/03/20 09:54:26;;;;;;;5.50;3.90;;;;;;;5.63;38.21;102461.41;5081577;28;20418;-69
2021/03/20 09:57:07;;;;;;;4.20;3.57;;;;;;;4.62;40.62;102470.09;5079546;28;20168;-70
2021/03/20 09:59:33;;;;;;;4.80;4.30;;;;;;;5.11;40.25;102464.41;5081907;28;20469;-72
2021/03/20 10:02:08;;;;;;;4.50;3.30;;;;;;;5.11;40.59;102454.06;5079826;28;20403;-70
2021/03/20 10:04:58;;;;;;;4.73;3.50;;;;;;;4.80;40.83;102444.47;5080085;28;20848;-72
2021/03/20 10:07:24;;;;;;;5.63;4.20;;;;;;;4.91;39.71;102427.91;5079096;28;20840;-69
2021/03/20 10:10:11;;;;;;;3.90;3.40;;;;;;;5.09;40.68;102430.72;5080609;28;20415;-73
2021/03/20 10:12:45;;;;;;;6.33;3.80;;;;;;;5.35;39.79;102431.38;5079577;28;20244;-70
2021/03/20 10:15:20;;;;;;;4.13;3.67;;;;;;;5.50;40.00;102432.22;5079852;28;20417;-70
2021/03/20 10:18:12;;;;;;;4.93;4.20;;;;;;;6.36;37.87;102418.06;5073095;28;20472;-70
2021/03/20 10:20:48;;;;;;;6.93;4.63;;;;;;;6.82;36.69;102421.28;5075751;28;20677;-72
2021/03/20 10:23:14;;;;;;;4.90;3.60;;;;;;;6.23;39.91;102425.97;5074310;28;20404;-70
2021/03/20 10:25:45;;;;;;;8.60;3.83;;;;;;;6.29;37.98;102420.22;5059337;28;20468;-70
2021/03/20 10:28:10;;;;;;;4.63;3.60;;;;;;;6.27;37.21;102422.75;5058332;28;20183;-70
2021/03/20 10:30:37;;;;;;;4.40;3.43;;;;;;;5.97;38.83;102407.28;5060305;28;20405;-71
2021/03/20 10:33:05;;;;;;;4.53;3.50;;;;;;;6.22;38.47;102411.22;5063775;28;20180;-69
2021/03/20 10:35:33;;;;;;;4.80;3.90;;;;;;;6.25;38.91;102411.38;5069710;28;20446;-69
2021/03/20 10:38:16;;;;;;;4.10;3.70;;;;;;;6.30;38.94;102396.13;5082876;28;20528;-70
2021/03/20 10:40:42;;;;;;;4.80;3.63;;;;;;;6.84;38.55;102396.34;5083599;28;20426;-72
2021/03/20 10:43:10;;;;;;;6.10;4.40;;;;;;;6.02;39.99;102398.09;5083222;28;20415;-71
2021/03/20 10:45:38;;;;;;;5.03;4.20;;;;;;;6.94;38.81;102388.25;5084728;28;20411;-71
2021/03/20 10:48:22;;;;;;;5.50;3.87;;;;;;;6.81;38.43;102380.66;5084603;28;20443;-70
2021/03/20 10:50:49;;;;;;;5.87;4.00;;;;;;;7.31;37.46;102389.22;5083078;28;20445;-68
2021/03/20 10:53:18;;;;;;;6.63;4.27;;;;;;;6.94;38.12;102377.88;5081978;28;20404;-68
2021/03/20 10:55:49;;;;;;;4.30;3.90;;;;;;;6.62;38.14;102378.81;5083214;28;20415;-69
2021/03/20 10:58:26;;;;;;;6.37;5.63;;;;;;;7.06;38.08;102373.31;5082430;28;20588;-69
2021/03/20 11:00:51;;;;;;;6.60;5.00;;;;;;;7.63;36.32;102358.72;5083760;28;20407;-68
2021/03/20 11:03:44;;;;;;;5.57;4.17;;;;;;;6.79;38.56;102366.72;5083115;28;20429;-68
2021/03/20 11:06:15;;;;;;;5.20;4.70;;;;;;;7.58;38.07;102363.72;5083404;28;20442;-70
2021/03/20 11:08:42;;;;;;;5.80;4.90;;;;;;;7.39;37.75;102359.34;5081474;28;20484;-69
2021/03/20 11:11:15;;;;;;;6.33;5.30;;;;;;;7.82;37.02;102352.69;5078595;28;20414;-70
2021/03/20 11:13:44;;;;;;;7.73;5.13;;;;;;;7.80;37.60;102356.94;5078435;28;20707;-70
2021/03/20 11:16:13;;;;;;;5.97;4.93;;;;;;;8.48;35.58;102347.06;5078472;28;20415;-69
2021/03/20 11:18:54;;;;;;;5.93;5.13;;;;;;;8.85;35.71;102348.66;5077597;28;20502;-69
2021/03/20 11:21:31;;;;;;;5.47;4.97;;;;;;;9.71;34.37;102341.75;5077807;28;20418;-67
2021/03/20 11:24:04;;;;;;;5.30;4.80;;;;;;;8.04;37.43;102352.88;5079925;28;20418;-67
2021/03/20 11:26:33;;;;;;;5.80;5.20;;;;;;;8.09;37.98;102333.22;5080246;28;20535;-73
2021/03/20 11:28:59;;;;;;;5.53;5.03;;;;;;;8.09;40.04;102333.22;5078752;28;20831;-70
2021/03/20 11:31:26;;;;;;;6.10;5.20;;;;;;;8.30;39.38;102327.19;5077177;28;20411;-71
2021/03/20 11:33:51;;;;;;;5.30;4.80;;;;;;;8.56;36.87;102328.38;5078199;28;20469;-73
2021/03/20 11:36:23;;;;;;;6.50;5.50;;;;;;;8.95;36.52;102323.94;5077808;28;20403;-72
2021/03/20 11:38:50;;;;;;;6.43;5.63;;;;;;;8.83;36.69;102322.56;5076961;28;20205;-73
2021/03/20 11:41:23;;;;;;;6.70;5.40;;;;;;;7.79;39.97;102324.00;5077198;28;20415;-71
2021/03/20 11:43:58;;;;;;;7.80;4.77;;;;;;;7.62;41.28;102318.00;5077462;28;20510;-72
2021/03/20 11:46:33;;;;;;;6.60;5.63;;;;;;;7.14;41.84;102326.09;5077825;28;20411;-72
2021/03/20 11:49:05;;;;;;;5.67;4.80;;;;;;;7.82;40.15;102309.47;5084947;28;20414;-71
2021/03/20 11:51:44;;;;;;;6.03;5.13;;;;;;;8.20;39.19;102293.81;5081976;28;20418;-71
2021/03/20 11:54:25;;;;;;;7.37;6.33;;;;;;;8.58;38.46;102292.06;5081708;28;20674;-70
2021/03/20 11:56:57;;;;;;;6.37;4.90;;;;;;;8.34;40.30;102290.13;5080905;28;20418;-71
2021/03/20 11:59:38;;;;;;;6.33;5.33;;;;;;;8.44;39.60;102288.81;5080784;28;20450;-72
2021/03/20 12:02:06;;;;;;;6.00;5.33;;;;;;;7.28;43.42;102296.56;5080822;28;20894;-71
2021/03/20 12:04:33;;;;;;;6.20;5.50;;;;;;;7.95;41.27;102279.75;5081517;28;20419;-72
2021/03/20 12:07:20;;;;;;;6.10;5.50;;;;;;;7.88;41.69;102272.50;5081416;28;20404;-72